Time,TemperatureF,DewpointF,PressureIn,WindDirection,WindDirectionDegrees,WindSpeedMPH,WindSpeedGustMPH,Humidity,HourlyPrecipIn,Conditions,Clouds,dailyrainin,SolarRadiationWatts/m^2,SoftwareType,DateUTC
2013-09-13 00:11:00,68.4,46.0,29.88,ESE,104,0.0,1.0,45,0.00,,,0.00,0,weatherlink.com 1.10,2013-09-13 06:11:00,
2013-09-13 00:26:00,67.3,46.0,29.88,ESE,104,0.0,3.0,46,0.00,,,0.00,0,weatherlink.com 1.10,2013-09-13 06:26:00,
2013-09-13 00:41:00,66.8,46.0,29.87,ESE,107,2.0,3.0,48,0.00,,,0.00,0,weatherlink.com 1.10,2013-09-13 06:41:00,
2013-09-13 00:56:00,67.6,49.0,29.87,ESE,106,0.0,3.0,51,0.00,,,0.00,0,weatherlink.com 1.10,2013-09-13 06:56:00,
2013-09-13 01:11:00,64.2,48.0,29.87,ESE,106,0.0,0.0,55,0.00,,,0.00,0,weatherlink.com 1.10,2013-09-13 07:11:00,
2013-09-13 01:26:00,63.4,48.0,29.87,NW,306,0.0,1.0,58,0.00,,,0.00,0,weatherlink.com 1.10,2013-09-13 07:26:00,
2013-09-13 01:41:00,63.1,49.0,29.87,NW,306,0.0,1.0,60,0.00,,,0.00,0,weatherlink.com 1.10,2013-09-13 07:41:00,
2013-09-13 01:56:00,63.8,49.0,29.87,NW,306,0.0,0.0,60,0.00,,,0.00,0,weatherlink.com 1.10,2013-09-13 07:56:00,
2013-09-13 02:11:00,64.7,49.0,29.88,NW,306,0.0,1.0,58,0.00,,,0.00,0,weatherlink.com 1.10,2013-09-13 08:11:00,
2013-09-13 02:26:00,63.2,49.0,29.87,NW,306,0.0,0.0,60,0.00,,,0.00,0,weatherlink.com 1.10,2013-09-13 08:26:00,
2013-09-13 02:41:00,63.4,50.0,29.87,NW,306,0.0,0.0,61,0.00,,,0.00,0,weatherlink.com 1.10,2013-09-13 08:41:00,
2013-09-13 02:56:00,61.8,49.0,29.87,NW,306,0.0,0.0,63,0.00,,,0.00,0,weatherlink.com 1.10,2013-09-13 08:56:00,
2013-09-13 03:11:00,61.3,50.0,29.87,NW,306,0.0,0.0,66,0.00,,,0.00,0,weatherlink.com 1.10,2013-09-13 09:11:00,
2013-09-13 03:26:00,62.7,48.0,29.87,WNW,293,0.0,6.0,59,0.00,,,0.00,0,weatherlink.com 1.10,2013-09-13 09:26:00,
2013-09-13 03:41:00,63.5,49.0,29.86,North,350,0.0,4.0,59,0.00,,,0.00,0,weatherlink.com 1.10,2013-09-13 09:41:00,
2013-09-13 03:56:00,62.3,48.0,29.86,North,350,0.0,0.0,61,0.00,,,0.00,0,weatherlink.com 1.10,2013-09-13 09:56:00,
2013-09-13 04:11:00,61.4,48.0,29.86,North,350,0.0,2.0,61,0.00,,,0.00,0,weatherlink.com 1.10,2013-09-13 10:11:00,
2013-09-13 04:26:00,62.8,47.0,29.87,ESE,123,0.0,2.0,56,0.00,,,0.00,0,weatherlink.com 1.10,2013-09-13 10:26:00,
2013-09-13 04:41:00,60.7,47.0,29.88,SE,124,0.0,2.0,61,0.00,,,0.00,0,weatherlink.com 1.10,2013-09-13 10:41:00,
2013-09-13 04:56:00,60.5,47.0,29.87,SE,124,0.0,0.0,61,0.00,,,0.00,0,weatherlink.com 1.10,2013-09-13 10:56:00,
2013-09-13 05:11:00,60.2,47.0,29.87,SSE,164,0.0,3.0,61,0.00,,,0.00,0,weatherlink.com 1.10,2013-09-13 11:11:00,
2013-09-13 05:26:00,60.4,46.0,29.87,SSE,164,0.0,0.0,60,0.00,,,0.00,0,weatherlink.com 1.10,2013-09-13 11:26:00,
2013-09-13 05:41:00,60.0,46.0,29.87,SSE,164,0.0,0.0,60,0.00,,,0.00,0,weatherlink.com 1.10,2013-09-13 11:41:00,
2013-09-13 05:56:00,59.3,46.0,29.87,SSE,164,0.0,0.0,61,0.00,,,0.00,0,weatherlink.com 1.10,2013-09-13 11:56:00,
2013-09-13 06:11:00,58.4,46.0,29.87,SSE,164,0.0,0.0,63,0.00,,,0.00,0,weatherlink.com 1.10,2013-09-13 12:11:00,
2013-09-13 06:26:00,58.9,46.0,29.87,SSE,164,0.0,0.0,63,0.00,,,0.00,0,weatherlink.com 1.10,2013-09-13 12:26:00,
2013-09-13 06:41:00,58.0,46.0,29.87,SSE,166,0.0,0.0,65,0.00,,,0.00,0,weatherlink.com 1.10,2013-09-13 12:41:00,
2013-09-13 06:56:00,57.6,46.0,29.87,SSE,166,0.0,0.0,66,0.00,,,0.00,0,weatherlink.com 1.10,2013-09-13 12:56:00,
2013-09-13 07:11:00,57.2,47.0,29.88,SSE,166,0.0,0.0,68,0.00,,,0.00,0,weatherlink.com 1.10,2013-09-13 13:11:00,
2013-09-13 07:26:00,56.4,47.0,29.88,SSE,166,0.0,0.0,71,0.00,,,0.00,14,weatherlink.com 1.10,2013-09-13 13:26:00,
2013-09-13 07:42:00,56.5,48.0,29.89,SSE,166,0.0,0.0,72,0.00,,,0.00,25,weatherlink.com 1.10,2013-09-13 13:42:00,
2013-09-13 07:57:00,56.6,47.0,29.89,SSE,166,0.0,0.0,71,0.00,,,0.00,30,weatherlink.com 1.10,2013-09-13 13:57:00,
2013-09-13 08:12:00,57.3,48.0,29.89,SSW,200,0.0,1.0,70,0.00,,,0.00,70,weatherlink.com 1.10,2013-09-13 14:12:00,
2013-09-13 08:27:00,58.3,48.0,29.89,SSW,213,0.0,0.0,68,0.00,,,0.00,109,weatherlink.com 1.10,2013-09-13 14:27:00,
2013-09-13 08:42:00,59.4,48.0,29.89,SSW,213,0.0,0.0,67,0.00,,,0.00,158,weatherlink.com 1.10,2013-09-13 14:42:00,
2013-09-13 08:57:00,61.8,48.0,29.89,SSW,212,0.0,0.0,61,0.00,,,0.00,200,weatherlink.com 1.10,2013-09-13 14:57:00,
2013-09-13 09:12:00,63.4,48.0,29.88,SSW,212,0.0,0.0,57,0.00,,,0.00,241,weatherlink.com 1.10,2013-09-13 15:12:00,
2013-09-13 09:27:00,63.3,48.0,29.88,WNW,288,3.0,5.0,57,0.00,,,0.00,279,weatherlink.com 1.10,2013-09-13 15:27:00,
2013-09-13 09:42:00,64.3,49.0,29.88,WNW,285,4.0,5.0,58,0.00,,,0.00,320,weatherlink.com 1.10,2013-09-13 15:42:00,
2013-09-13 09:57:00,64.7,49.0,29.88,West,271,1.0,5.0,57,0.00,,,0.00,364,weatherlink.com 1.10,2013-09-13 15:57:00,
2013-09-13 10:12:00,66.1,50.0,29.87,West,270,3.0,4.0,56,0.00,,,0.00,411,weatherlink.com 1.10,2013-09-13 16:12:00,
2013-09-13 10:27:00,67.9,49.0,29.86,West,271,2.0,5.0,52,0.00,,,0.00,422,weatherlink.com 1.10,2013-09-13 16:27:00,
2013-09-13 10:42:00,69.3,49.0,29.86,West,266,0.0,4.0,48,0.00,,,0.00,308,weatherlink.com 1.10,2013-09-13 16:42:00,
2013-09-13 10:57:00,70.8,49.0,29.86,West,266,0.0,3.0,47,0.00,,,0.00,464,weatherlink.com 1.10,2013-09-13 16:57:00,
2013-09-13 11:12:00,72.2,50.0,29.85,West,266,0.0,2.0,45,0.00,,,0.00,454,weatherlink.com 1.10,2013-09-13 17:12:00,
2013-09-13 11:27:00,73.5,50.0,29.85,SSW,212,0.0,4.0,44,0.00,,,0.00,211,weatherlink.com 1.10,2013-09-13 17:27:00,
2013-09-13 11:42:00,74.0,51.0,29.84,SSW,212,0.0,2.0,44,0.00,,,0.00,181,weatherlink.com 1.10,2013-09-13 17:42:00,
2013-09-13 11:58:00,74.4,51.0,29.83,SSW,212,0.0,3.0,44,0.00,,,0.00,512,weatherlink.com 1.10,2013-09-13 17:58:00,
2013-09-13 12:13:00,76.1,51.0,29.82,West,279,0.0,5.0,42,0.00,,,0.00,647,weatherlink.com 1.10,2013-09-13 18:13:00,
2013-09-13 12:28:00,77.9,51.0,29.82,South,170,0.0,5.0,39,0.00,,,0.00,698,weatherlink.com 1.10,2013-09-13 18:28:00,
2013-09-13 12:43:00,80.1,51.0,29.81,SW,227,3.0,6.0,37,0.00,,,0.00,687,weatherlink.com 1.10,2013-09-13 18:43:00,
2013-09-13 12:58:00,79.9,51.0,29.80,SW,235,5.0,8.0,37,0.00,,,0.00,691,weatherlink.com 1.10,2013-09-13 18:58:00,
2013-09-13 13:13:00,80.7,51.0,29.79,SW,216,2.0,10.0,36,0.00,,,0.00,701,weatherlink.com 1.10,2013-09-13 19:13:00,
2013-09-13 13:28:00,81.8,52.0,29.78,WSW,245,3.0,7.0,35,0.00,,,0.00,710,weatherlink.com 1.10,2013-09-13 19:28:00,
2013-09-13 13:43:00,82.4,51.0,29.77,WNW,296,0.0,7.0,33,0.00,,,0.00,714,weatherlink.com 1.10,2013-09-13 19:43:00,
2013-09-13 13:58:00,82.9,51.0,29.76,SW,225,3.0,7.0,33,0.00,,,0.00,721,weatherlink.com 1.10,2013-09-13 19:58:00,
2013-09-13 14:13:00,84.2,52.0,29.76,WNW,291,3.0,7.0,33,0.00,,,0.00,722,weatherlink.com 1.10,2013-09-13 20:13:00,
2013-09-13 14:28:00,84.8,51.0,29.75,NW,306,3.0,8.0,31,0.00,,,0.00,719,weatherlink.com 1.10,2013-09-13 20:28:00,
2013-09-13 14:43:00,85.6,51.0,29.74,NW,308,8.0,11.0,30,0.00,,,0.00,703,weatherlink.com 1.10,2013-09-13 20:43:00,
2013-09-13 14:58:00,86.9,48.0,29.74,NW,305,10.0,17.0,26,0.00,,,0.00,682,weatherlink.com 1.10,2013-09-13 20:58:00,
2013-09-13 15:13:00,87.2,47.0,29.73,NW,306,12.0,17.0,25,0.00,,,0.00,663,weatherlink.com 1.10,2013-09-13 21:13:00,
2013-09-13 15:28:00,87.1,47.0,29.73,NW,312,8.0,16.0,25,0.00,,,0.00,647,weatherlink.com 1.10,2013-09-13 21:28:00,
2013-09-13 15:43:00,87.1,46.0,29.73,WNW,290,9.0,16.0,24,0.00,,,0.00,622,weatherlink.com 1.10,2013-09-13 21:43:00,
2013-09-13 15:58:00,88.0,46.0,29.72,NW,309,14.0,18.0,23,0.00,,,0.00,596,weatherlink.com 1.10,2013-09-13 21:58:00,
2013-09-13 16:13:00,88.5,47.0,29.71,NNW,331,7.0,14.0,24,0.00,,,0.00,570,weatherlink.com 1.10,2013-09-13 22:13:00,
2013-09-13 16:28:00,88.3,45.0,29.71,North,354,7.0,16.0,22,0.00,,,0.00,540,weatherlink.com 1.10,2013-09-13 22:28:00,
2013-09-13 16:43:00,87.3,46.0,29.71,NNW,344,7.0,16.0,24,0.00,,,0.00,503,weatherlink.com 1.10,2013-09-13 22:43:00,
2013-09-13 16:58:00,87.7,46.0,29.71,NNW,339,14.0,19.0,23,0.00,,,0.00,464,weatherlink.com 1.10,2013-09-13 22:58:00,
2013-09-13 17:13:00,87.3,45.0,29.71,North,358,7.0,18.0,23,0.00,,,0.00,424,weatherlink.com 1.10,2013-09-13 23:13:00,
2013-09-13 17:28:00,87.0,44.0,29.71,NNW,333,14.0,17.0,22,0.00,,,0.00,390,weatherlink.com 1.10,2013-09-13 23:28:00,
2013-09-13 17:44:00,87.5,43.0,29.70,NW,317,10.0,19.0,21,0.00,,,0.00,345,weatherlink.com 1.10,2013-09-13 23:44:00,
2013-09-13 17:59:00,86.9,42.0,29.71,NNW,341,12.0,18.0,21,0.00,,,0.00,299,weatherlink.com 1.10,2013-09-13 23:59:00,
2013-09-13 18:14:00,86.4,42.0,29.71,NNW,327,11.0,20.0,21,0.00,,,0.00,246,weatherlink.com 1.10,2013-09-14 00:14:00,
2013-09-13 18:29:00,85.1,43.0,29.71,North,1,16.0,20.0,23,0.00,,,0.00,153,weatherlink.com 1.10,2013-09-14 00:29:00,
2013-09-13 18:44:00,83.9,43.0,29.71,NW,316,8.0,17.0,24,0.00,,,0.00,111,weatherlink.com 1.10,2013-09-14 00:44:00,
2013-09-13 18:59:00,83.0,45.0,29.71,NW,312,13.0,18.0,26,0.00,,,0.00,118,weatherlink.com 1.10,2013-09-14 00:59:00,
2013-09-13 19:14:00,82.0,46.0,29.72,NNW,327,11.0,16.0,28,0.00,,,0.00,32,weatherlink.com 1.10,2013-09-14 01:14:00,
2013-09-13 19:29:00,80.9,46.0,29.72,NNW,339,6.0,9.0,29,0.00,,,0.00,26,weatherlink.com 1.10,2013-09-14 01:29:00,
2013-09-13 19:44:00,80.1,46.0,29.72,North,352,6.0,10.0,30,0.00,,,0.00,7,weatherlink.com 1.10,2013-09-14 01:44:00,
2013-09-13 19:59:00,79.6,46.0,29.72,North,3,5.0,10.0,31,0.00,,,0.00,0,weatherlink.com 1.10,2013-09-14 01:59:00,
2013-09-13 20:14:00,79.0,46.0,29.72,North,10,7.0,10.0,31,0.00,,,0.00,0,weatherlink.com 1.10,2013-09-14 02:14:00,
2013-09-13 20:29:00,78.8,46.0,29.73,North,10,8.0,11.0,31,0.00,,,0.00,0,weatherlink.com 1.10,2013-09-14 02:29:00,
2013-09-13 20:44:00,78.8,46.0,29.74,NNE,23,6.0,9.0,31,0.00,,,0.00,0,weatherlink.com 1.10,2013-09-14 02:44:00,
2013-09-13 20:59:00,78.8,47.0,29.74,North,8,5.0,10.0,32,0.00,,,0.00,0,weatherlink.com 1.10,2013-09-14 02:59:00,
2013-09-13 21:14:00,78.9,47.0,29.75,North,9,6.0,10.0,32,0.00,,,0.00,0,weatherlink.com 1.10,2013-09-14 03:14:00,
2013-09-13 21:29:00,78.8,47.0,29.77,ENE,77,8.0,12.0,32,0.00,,,0.00,0,weatherlink.com 1.10,2013-09-14 03:29:00,
2013-09-13 21:44:00,79.5,47.0,29.77,East,95,3.0,10.0,32,0.00,,,0.00,0,weatherlink.com 1.10,2013-09-14 03:44:00,
2013-09-13 21:59:00,78.0,47.0,29.79,SSW,199,3.0,9.0,33,0.00,,,0.00,0,weatherlink.com 1.10,2013-09-14 03:59:00,
2013-09-13 22:14:00,73.9,50.0,29.80,SE,141,6.0,10.0,43,0.00,,,0.00,0,weatherlink.com 1.10,2013-09-14 04:14:00,
2013-09-13 22:29:00,72.7,51.0,29.80,East,101,9.0,10.0,46,0.00,,,0.00,0,weatherlink.com 1.10,2013-09-14 04:29:00,
2013-09-13 22:44:00,72.5,50.0,29.80,ESE,108,8.0,12.0,46,0.00,,,0.00,0,weatherlink.com 1.10,2013-09-14 04:44:00,
2013-09-13 22:59:00,72.4,50.0,29.80,East,100,10.0,15.0,45,0.00,,,0.00,0,weatherlink.com 1.10,2013-09-14 04:59:00,
2013-09-13 23:14:00,71.9,49.0,29.81,East,94,9.0,14.0,45,0.00,,,0.00,0,weatherlink.com 1.10,2013-09-14 05:14:00,
2013-09-13 23:29:00,72.1,50.0,29.81,ESE,115,8.0,16.0,45,0.00,,,0.00,0,weatherlink.com 1.10,2013-09-14 05:29:00,
2013-09-13 23:44:00,71.9,50.0,29.82,ESE,123,8.0,12.0,46,0.00,,,0.00,0,weatherlink.com 1.10,2013-09-14 05:44:00,
2013-09-13 23:59:00,71.2,49.0,29.83,SE,141,2.0,9.0,46,0.00,,,0.00,0,weatherlink.com 1.10,2013-09-14 05:59:00,